sensor_id;sensor_type;location;lat;lon;timestamp;P1;durP1;ratioP1;P2;durP2;ratioP2
11514;SDS011;5814;41.936;25.556;2022-08-04T00:02:06;5.68;;;5.28;;
11514;SDS011;5814;41.936;25.556;2022-08-04T00:04:32;6.10;;;5.50;;
11514;SDS011;5814;41.936;25.556;2022-08-04T00:07:05;6.05;;;5.57;;
11514;SDS011;5814;41.936;25.556;2022-08-04T00:09:41;5.97;;;5.57;;
11514;SDS011;5814;41.936;25.556;2022-08-04T00:11:56;5.68;;;5.37;;
11514;SDS011;5814;41.936;25.556;2022-08-04T00:14:22;5.60;;;5.30;;
11514;SDS011;5814;41.936;25.556;2022-08-04T00:16:48;5.53;;;5.22;;
11514;SDS011;5814;41.936;25.556;2022-08-04T00:19:17;6.00;;;5.60;;
11514;SDS011;5814;41.936;25.556;2022-08-04T00:21:45;5.55;;;5.15;;
11514;SDS011;5814;41.936;25.556;2022-08-04T00:24:10;5.50;;;5.20;;
11514;SDS011;5814;41.936;25.556;2022-08-04T00:26:36;5.78;;;5.30;;
11514;SDS011;5814;41.936;25.556;2022-08-04T00:29:04;6.20;;;5.72;;
11514;SDS011;5814;41.936;25.556;2022-08-04T00:31:29;5.68;;;5.28;;
11514;SDS011;5814;41.936;25.556;2022-08-04T00:33:55;6.15;;;5.65;;
11514;SDS011;5814;41.936;25.556;2022-08-04T00:36:22;6.15;;;5.82;;
11514;SDS011;5814;41.936;25.556;2022-08-04T00:38:48;5.10;;;4.82;;
11514;SDS011;5814;41.936;25.556;2022-08-04T00:41:18;5.43;;;5.20;;
11514;SDS011;5814;41.936;25.556;2022-08-04T00:49:17;6.05;;;5.75;;
11514;SDS011;5814;41.936;25.556;2022-08-04T00:56:58;5.70;;;5.30;;
11514;SDS011;5814;41.936;25.556;2022-08-04T00:59:29;6.70;;;6.30;;
11514;SDS011;5814;41.936;25.556;2022-08-04T01:01:55;6.78;;;6.28;;
11514;SDS011;5814;41.936;25.556;2022-08-04T01:04:25;6.03;;;5.62;;
11514;SDS011;5814;41.936;25.556;2022-08-04T01:09:25;7.10;;;6.45;;
11514;SDS011;5814;41.936;25.556;2022-08-04T01:14:46;5.97;;;5.68;;
11514;SDS011;5814;41.936;25.556;2022-08-04T01:17:18;6.05;;;5.70;;
11514;SDS011;5814;41.936;25.556;2022-08-04T01:20:03;5.72;;;5.40;;
11514;SDS011;5814;41.936;25.556;2022-08-04T01:22:44;6.62;;;6.10;;
11514;SDS011;5814;41.936;25.556;2022-08-04T01:25:28;6.35;;;5.95;;
11514;SDS011;5814;41.936;25.556;2022-08-04T01:30:20;6.30;;;6.00;;
11514;SDS011;5814;41.936;25.556;2022-08-04T01:32:48;6.37;;;5.97;;
11514;SDS011;5814;41.936;25.556;2022-08-04T01:35:19;6.10;;;5.60;;
11514;SDS011;5814;41.936;25.556;2022-08-04T01:40:14;6.03;;;5.72;;
11514;SDS011;5814;41.936;25.556;2022-08-04T01:42:40;7.20;;;6.22;;
11514;SDS011;5814;41.936;25.556;2022-08-04T01:45:07;6.90;;;6.32;;
11514;SDS011;5814;41.936;25.556;2022-08-04T01:47:35;6.72;;;5.82;;
11514;SDS011;5814;41.936;25.556;2022-08-04T01:50:03;7.00;;;6.40;;
11514;SDS011;5814;41.936;25.556;2022-08-04T01:52:27;6.53;;;6.03;;
11514;SDS011;5814;41.936;25.556;2022-08-04T01:54:53;5.80;;;5.47;;
11514;SDS011;5814;41.936;25.556;2022-08-04T01:57:20;6.47;;;6.07;;
11514;SDS011;5814;41.936;25.556;2022-08-04T01:59:46;6.60;;;6.20;;
11514;SDS011;5814;41.936;25.556;2022-08-04T02:02:12;6.78;;;6.32;;
11514;SDS011;5814;41.936;25.556;2022-08-04T02:04:39;6.53;;;6.03;;
11514;SDS011;5814;41.936;25.556;2022-08-04T02:09:52;6.20;;;5.90;;
11514;SDS011;5814;41.936;25.556;2022-08-04T02:12:26;6.40;;;6.00;;
11514;SDS011;5814;41.936;25.556;2022-08-04T02:14:57;6.80;;;6.32;;
11514;SDS011;5814;41.936;25.556;2022-08-04T02:17:27;6.40;;;6.10;;
11514;SDS011;5814;41.936;25.556;2022-08-04T02:19:59;6.20;;;5.80;;
11514;SDS011;5814;41.936;25.556;2022-08-04T02:22:21;6.60;;;6.20;;
11514;SDS011;5814;41.936;25.556;2022-08-04T02:24:49;6.90;;;6.40;;
11514;SDS011;5814;41.936;25.556;2022-08-04T02:27:15;5.60;;;5.30;;
11514;SDS011;5814;41.936;25.556;2022-08-04T02:29:45;6.78;;;6.20;;
11514;SDS011;5814;41.936;25.556;2022-08-04T02:32:11;6.50;;;6.10;;
11514;SDS011;5814;41.936;25.556;2022-08-04T02:34:38;5.97;;;5.53;;
11514;SDS011;5814;41.936;25.556;2022-08-04T02:37:03;6.40;;;6.10;;
11514;SDS011;5814;41.936;25.556;2022-08-04T02:39:32;7.00;;;6.60;;
11514;SDS011;5814;41.936;25.556;2022-08-04T02:41:57;6.65;;;6.32;;
11514;SDS011;5814;41.936;25.556;2022-08-04T02:44:24;7.00;;;6.40;;
11514;SDS011;5814;41.936;25.556;2022-08-04T02:46:50;7.10;;;6.60;;
11514;SDS011;5814;41.936;25.556;2022-08-04T02:49:16;6.82;;;6.43;;
11514;SDS011;5814;41.936;25.556;2022-08-04T02:51:46;6.43;;;5.87;;
11514;SDS011;5814;41.936;25.556;2022-08-04T02:54:12;6.62;;;6.05;;
11514;SDS011;5814;41.936;25.556;2022-08-04T02:56:38;7.20;;;6.70;;
11514;SDS011;5814;41.936;25.556;2022-08-04T02:59:05;6.45;;;6.15;;
11514;SDS011;5814;41.936;25.556;2022-08-04T03:01:31;6.90;;;6.45;;
11514;SDS011;5814;41.936;25.556;2022-08-04T03:04:41;13.50;;;7.20;;
11514;SDS011;5814;41.936;25.556;2022-08-04T03:12:05;7.87;;;6.62;;
11514;SDS011;5814;41.936;25.556;2022-08-04T03:14:48;6.70;;;6.05;;
11514;SDS011;5814;41.936;25.556;2022-08-04T03:17:15;6.72;;;6.07;;
11514;SDS011;5814;41.936;25.556;2022-08-04T03:22:22;7.37;;;6.68;;
11514;SDS011;5814;41.936;25.556;2022-08-04T03:25:05;6.60;;;6.20;;
11514;SDS011;5814;41.936;25.556;2022-08-04T03:30:03;8.38;;;7.57;;
11514;SDS011;5814;41.936;25.556;2022-08-04T03:35:02;7.07;;;6.62;;
11514;SDS011;5814;41.936;25.556;2022-08-04T03:45:33;6.82;;;6.32;;
11514;SDS011;5814;41.936;25.556;2022-08-04T03:50:37;6.97;;;6.57;;
11514;SDS011;5814;41.936;25.556;2022-08-04T03:55:56;7.00;;;6.50;;
11514;SDS011;5814;41.936;25.556;2022-08-04T03:58:25;7.43;;;6.93;;
11514;SDS011;5814;41.936;25.556;2022-08-04T04:00:51;6.47;;;6.03;;
11514;SDS011;5814;41.936;25.556;2022-08-04T04:03:22;7.32;;;6.82;;
11514;SDS011;5814;41.936;25.556;2022-08-04T04:06:00;8.00;;;7.45;;
11514;SDS011;5814;41.936;25.556;2022-08-04T04:11:18;7.37;;;6.87;;
11514;SDS011;5814;41.936;25.556;2022-08-04T04:16:16;6.90;;;6.37;;
11514;SDS011;5814;41.936;25.556;2022-08-04T04:18:46;7.03;;;6.53;;
11514;SDS011;5814;41.936;25.556;2022-08-04T04:21:15;7.18;;;6.57;;
11514;SDS011;5814;41.936;25.556;2022-08-04T04:23:42;7.10;;;6.70;;
11514;SDS011;5814;41.936;25.556;2022-08-04T04:26:06;7.10;;;6.60;;
11514;SDS011;5814;41.936;25.556;2022-08-04T04:31:20;7.22;;;6.72;;
11514;SDS011;5814;41.936;25.556;2022-08-04T04:33:50;8.48;;;7.70;;
11514;SDS011;5814;41.936;25.556;2022-08-04T04:36:16;9.57;;;8.35;;
11514;SDS011;5814;41.936;25.556;2022-08-04T04:38:52;7.15;;;6.68;;
11514;SDS011;5814;41.936;25.556;2022-08-04T04:41:28;7.40;;;6.90;;
11514;SDS011;5814;41.936;25.556;2022-08-04T04:44:28;7.75;;;5.95;;
11514;SDS011;5814;41.936;25.556;2022-08-04T04:46:40;8.10;;;6.40;;
11514;SDS011;5814;41.936;25.556;2022-08-04T04:49:07;6.25;;;5.78;;
11514;SDS011;5814;41.936;25.556;2022-08-04T04:51:37;6.18;;;5.60;;
11514;SDS011;5814;41.936;25.556;2022-08-04T04:54:21;7.90;;;6.25;;
11514;SDS011;5814;41.936;25.556;2022-08-04T04:56:46;6.07;;;5.55;;
11514;SDS011;5814;41.936;25.556;2022-08-04T04:59:12;7.15;;;6.45;;
11514;SDS011;5814;41.936;25.556;2022-08-04T05:01:40;6.55;;;6.05;;
11514;SDS011;5814;41.936;25.556;2022-08-04T05:04:24;9.85;;;6.40;;
11514;SDS011;5814;41.936;25.556;2022-08-04T05:06:52;6.15;;;5.57;;
11514;SDS011;5814;41.936;25.556;2022-08-04T05:11:51;9.40;;;5.87;;
11514;SDS011;5814;41.936;25.556;2022-08-04T05:14:29;7.72;;;6.00;;
11514;SDS011;5814;41.936;25.556;2022-08-04T05:16:58;7.80;;;6.10;;
11514;SDS011;5814;41.936;25.556;2022-08-04T05:19:24;7.85;;;5.80;;
11514;SDS011;5814;41.936;25.556;2022-08-04T05:21:55;6.75;;;6.18;;
11514;SDS011;5814;41.936;25.556;2022-08-04T05:24:18;6.90;;;6.30;;
11514;SDS011;5814;41.936;25.556;2022-08-04T05:26:45;7.25;;;6.65;;
11514;SDS011;5814;41.936;25.556;2022-08-04T05:29:12;9.20;;;6.40;;
11514;SDS011;5814;41.936;25.556;2022-08-04T05:31:38;7.40;;;6.78;;
11514;SDS011;5814;41.936;25.556;2022-08-04T05:34:06;8.65;;;6.70;;
11514;SDS011;5814;41.936;25.556;2022-08-04T05:36:32;6.70;;;6.20;;
11514;SDS011;5814;41.936;25.556;2022-08-04T05:38:58;5.28;;;4.87;;
11514;SDS011;5814;41.936;25.556;2022-08-04T05:41:24;5.07;;;4.78;;
11514;SDS011;5814;41.936;25.556;2022-08-04T05:43:50;4.95;;;4.68;;
11514;SDS011;5814;41.936;25.556;2022-08-04T05:46:17;5.20;;;4.90;;
11514;SDS011;5814;41.936;25.556;2022-08-04T05:48:43;5.60;;;4.97;;
11514;SDS011;5814;41.936;25.556;2022-08-04T05:51:09;4.93;;;4.53;;
11514;SDS011;5814;41.936;25.556;2022-08-04T05:53:36;5.05;;;4.68;;
11514;SDS011;5814;41.936;25.556;2022-08-04T05:56:02;5.35;;;4.85;;
11514;SDS011;5814;41.936;25.556;2022-08-04T05:58:29;9.73;;;4.80;;
11514;SDS011;5814;41.936;25.556;2022-08-04T06:00:56;5.22;;;4.90;;
11514;SDS011;5814;41.936;25.556;2022-08-04T06:03:22;7.15;;;5.53;;
11514;SDS011;5814;41.936;25.556;2022-08-04T06:05:48;5.28;;;4.97;;
11514;SDS011;5814;41.936;25.556;2022-08-04T06:08:14;5.97;;;5.57;;
11514;SDS011;5814;41.936;25.556;2022-08-04T06:10:41;6.12;;;5.70;;
11514;SDS011;5814;41.936;25.556;2022-08-04T06:13:09;5.53;;;5.05;;
11514;SDS011;5814;41.936;25.556;2022-08-04T06:15:34;5.43;;;5.05;;
11514;SDS011;5814;41.936;25.556;2022-08-04T06:18:01;5.00;;;4.70;;
11514;SDS011;5814;41.936;25.556;2022-08-04T06:20:30;5.70;;;5.37;;
11514;SDS011;5814;41.936;25.556;2022-08-04T06:22:56;6.55;;;5.70;;
11514;SDS011;5814;41.936;25.556;2022-08-04T06:25:23;5.95;;;5.57;;
11514;SDS011;5814;41.936;25.556;2022-08-04T06:27:48;6.20;;;5.72;;
11514;SDS011;5814;41.936;25.556;2022-08-04T06:30:14;7.20;;;6.55;;
11514;SDS011;5814;41.936;25.556;2022-08-04T06:32:41;5.50;;;5.20;;
11514;SDS011;5814;41.936;25.556;2022-08-04T06:35:13;5.35;;;5.05;;
11514;SDS011;5814;41.936;25.556;2022-08-04T06:37:38;6.53;;;5.90;;
11514;SDS011;5814;41.936;25.556;2022-08-04T06:40:05;5.53;;;5.20;;
11514;SDS011;5814;41.936;25.556;2022-08-04T06:42:32;6.72;;;6.32;;
11514;SDS011;5814;41.936;25.556;2022-08-04T06:44:58;5.55;;;5.20;;
11514;SDS011;5814;41.936;25.556;2022-08-04T06:47:24;5.62;;;5.22;;
11514;SDS011;5814;41.936;25.556;2022-08-04T06:49:52;5.60;;;5.05;;
11514;SDS011;5814;41.936;25.556;2022-08-04T06:52:18;5.20;;;4.90;;
11514;SDS011;5814;41.936;25.556;2022-08-04T06:54:44;5.87;;;5.35;;
11514;SDS011;5814;41.936;25.556;2022-08-04T06:57:10;6.65;;;5.10;;
11514;SDS011;5814;41.936;25.556;2022-08-04T06:59:36;8.65;;;5.28;;
11514;SDS011;5814;41.936;25.556;2022-08-04T07:02:03;5.60;;;5.12;;
11514;SDS011;5814;41.936;25.556;2022-08-04T07:04:29;5.32;;;5.03;;
11514;SDS011;5814;41.936;25.556;2022-08-04T07:06:56;5.75;;;5.35;;
11514;SDS011;5814;41.936;25.556;2022-08-04T07:09:22;5.07;;;4.78;;
11514;SDS011;5814;41.936;25.556;2022-08-04T07:11:48;5.10;;;4.53;;
11514;SDS011;5814;41.936;25.556;2022-08-04T07:14:15;5.50;;;5.00;;
11514;SDS011;5814;41.936;25.556;2022-08-04T07:16:41;4.72;;;4.35;;
11514;SDS011;5814;41.936;25.556;2022-08-04T07:19:08;5.12;;;4.72;;
11514;SDS011;5814;41.936;25.556;2022-08-04T07:21:34;6.05;;;5.55;;
11514;SDS011;5814;41.936;25.556;2022-08-04T07:24:00;5.20;;;4.80;;
11514;SDS011;5814;41.936;25.556;2022-08-04T07:26:27;5.18;;;4.78;;
11514;SDS011;5814;41.936;25.556;2022-08-04T07:28:53;5.43;;;5.07;;
11514;SDS011;5814;41.936;25.556;2022-08-04T07:31:19;5.40;;;4.62;;
11514;SDS011;5814;41.936;25.556;2022-08-04T07:33:46;5.03;;;4.72;;
11514;SDS011;5814;41.936;25.556;2022-08-04T07:36:12;5.85;;;5.35;;
11514;SDS011;5814;41.936;25.556;2022-08-04T07:38:39;5.25;;;4.80;;
11514;SDS011;5814;41.936;25.556;2022-08-04T07:41:05;5.20;;;4.90;;
11514;SDS011;5814;41.936;25.556;2022-08-04T07:43:31;5.30;;;5.00;;
11514;SDS011;5814;41.936;25.556;2022-08-04T07:45:58;5.07;;;4.68;;
11514;SDS011;5814;41.936;25.556;2022-08-04T07:48:24;4.97;;;4.68;;
11514;SDS011;5814;41.936;25.556;2022-08-04T07:50:50;4.90;;;4.70;;
11514;SDS011;5814;41.936;25.556;2022-08-04T07:53:17;5.72;;;5.22;;
11514;SDS011;5814;41.936;25.556;2022-08-04T07:55:44;5.00;;;4.68;;
11514;SDS011;5814;41.936;25.556;2022-08-04T07:58:10;5.35;;;5.00;;
11514;SDS011;5814;41.936;25.556;2022-08-04T08:00:36;4.60;;;4.30;;
11514;SDS011;5814;41.936;25.556;2022-08-04T08:03:03;4.90;;;4.60;;
11514;SDS011;5814;41.936;25.556;2022-08-04T08:05:29;5.28;;;4.87;;
11514;SDS011;5814;41.936;25.556;2022-08-04T08:07:55;4.62;;;4.43;;
11514;SDS011;5814;41.936;25.556;2022-08-04T08:10:22;4.95;;;4.65;;
11514;SDS011;5814;41.936;25.556;2022-08-04T08:12:49;5.03;;;4.53;;
11514;SDS011;5814;41.936;25.556;2022-08-04T08:15:14;4.57;;;4.35;;
11514;SDS011;5814;41.936;25.556;2022-08-04T08:17:41;4.70;;;4.40;;
11514;SDS011;5814;41.936;25.556;2022-08-04T08:20:07;6.05;;;4.95;;
11514;SDS011;5814;41.936;25.556;2022-08-04T08:22:36;4.20;;;4.00;;
11514;SDS011;5814;41.936;25.556;2022-08-04T08:25:04;4.68;;;4.30;;
11514;SDS011;5814;41.936;25.556;2022-08-04T08:27:30;5.18;;;4.20;;
11514;SDS011;5814;41.936;25.556;2022-08-04T08:29:56;4.90;;;4.50;;
11514;SDS011;5814;41.936;25.556;2022-08-04T08:32:22;4.78;;;4.47;;
11514;SDS011;5814;41.936;25.556;2022-08-04T08:34:49;4.65;;;4.37;;
11514;SDS011;5814;41.936;25.556;2022-08-04T08:37:24;5.72;;;5.10;;
11514;SDS011;5814;41.936;25.556;2022-08-04T08:39:48;4.80;;;4.50;;
11514;SDS011;5814;41.936;25.556;2022-08-04T08:42:16;4.72;;;4.45;;
11514;SDS011;5814;41.936;25.556;2022-08-04T08:44:49;5.05;;;4.85;;
11514;SDS011;5814;41.936;25.556;2022-08-04T08:47:19;4.50;;;4.20;;
11514;SDS011;5814;41.936;25.556;2022-08-04T08:49:45;4.82;;;4.53;;
11514;SDS011;5814;41.936;25.556;2022-08-04T08:54:55;6.10;;;5.70;;
11514;SDS011;5814;41.936;25.556;2022-08-04T08:57:25;4.95;;;4.65;;
11514;SDS011;5814;41.936;25.556;2022-08-04T09:02:31;5.90;;;4.57;;
11514;SDS011;5814;41.936;25.556;2022-08-04T09:04:57;5.53;;;4.65;;
11514;SDS011;5814;41.936;25.556;2022-08-04T09:07:26;4.35;;;4.10;;
11514;SDS011;5814;41.936;25.556;2022-08-04T09:09:59;5.70;;;5.40;;
11514;SDS011;5814;41.936;25.556;2022-08-04T09:15:02;4.62;;;4.32;;
11514;SDS011;5814;41.936;25.556;2022-08-04T09:17:28;5.75;;;4.62;;
11514;SDS011;5814;41.936;25.556;2022-08-04T09:19:56;4.35;;;4.10;;
11514;SDS011;5814;41.936;25.556;2022-08-04T09:22:24;5.00;;;4.60;;
11514;SDS011;5814;41.936;25.556;2022-08-04T09:24:52;4.43;;;4.20;;
11514;SDS011;5814;41.936;25.556;2022-08-04T09:27:18;4.70;;;4.35;;
11514;SDS011;5814;41.936;25.556;2022-08-04T09:29:46;4.72;;;4.43;;
11514;SDS011;5814;41.936;25.556;2022-08-04T09:32:54;4.50;;;4.15;;
11514;SDS011;5814;41.936;25.556;2022-08-04T09:35:02;5.60;;;5.30;;
11514;SDS011;5814;41.936;25.556;2022-08-04T09:37:31;4.37;;;4.18;;
11514;SDS011;5814;41.936;25.556;2022-08-04T09:45:40;4.87;;;4.57;;
11514;SDS011;5814;41.936;25.556;2022-08-04T09:47:54;4.25;;;4.05;;
11514;SDS011;5814;41.936;25.556;2022-08-04T09:52:55;4.70;;;4.30;;
11514;SDS011;5814;41.936;25.556;2022-08-04T09:58:06;4.28;;;3.97;;
11514;SDS011;5814;41.936;25.556;2022-08-04T10:00:33;4.20;;;4.00;;
11514;SDS011;5814;41.936;25.556;2022-08-04T10:02:59;4.15;;;3.90;;
11514;SDS011;5814;41.936;25.556;2022-08-04T10:05:26;4.45;;;4.12;;
11514;SDS011;5814;41.936;25.556;2022-08-04T10:13:15;6.53;;;4.00;;
11514;SDS011;5814;41.936;25.556;2022-08-04T10:19:19;4.35;;;4.00;;
11514;SDS011;5814;41.936;25.556;2022-08-04T10:20:57;4.03;;;3.83;;
11514;SDS011;5814;41.936;25.556;2022-08-04T10:26:10;4.15;;;3.85;;
11514;SDS011;5814;41.936;25.556;2022-08-04T10:28:34;4.32;;;3.90;;
11514;SDS011;5814;41.936;25.556;2022-08-04T10:30:58;4.10;;;3.80;;
11514;SDS011;5814;41.936;25.556;2022-08-04T10:33:31;4.47;;;3.80;;
11514;SDS011;5814;41.936;25.556;2022-08-04T10:35:57;4.30;;;3.87;;
11514;SDS011;5814;41.936;25.556;2022-08-04T10:38:22;4.65;;;3.92;;
11514;SDS011;5814;41.936;25.556;2022-08-04T10:40:47;4.85;;;4.20;;
11514;SDS011;5814;41.936;25.556;2022-08-04T10:43:18;4.90;;;4.60;;
11514;SDS011;5814;41.936;25.556;2022-08-04T10:45:43;4.43;;;4.07;;
11514;SDS011;5814;41.936;25.556;2022-08-04T10:48:11;4.07;;;3.87;;
11514;SDS011;5814;41.936;25.556;2022-08-04T10:50:35;4.43;;;4.00;;
11514;SDS011;5814;41.936;25.556;2022-08-04T10:53:04;3.90;;;3.70;;
11514;SDS011;5814;41.936;25.556;2022-08-04T10:55:34;4.20;;;4.00;;
11514;SDS011;5814;41.936;25.556;2022-08-04T10:58:00;4.28;;;4.03;;
11514;SDS011;5814;41.936;25.556;2022-08-04T11:00:25;4.30;;;4.10;;
11514;SDS011;5814;41.936;25.556;2022-08-04T11:02:54;4.28;;;4.07;;
11514;SDS011;5814;41.936;25.556;2022-08-04T11:05:23;4.72;;;4.32;;
11514;SDS011;5814;41.936;25.556;2022-08-04T11:07:47;4.40;;;4.10;;
11514;SDS011;5814;41.936;25.556;2022-08-04T11:10:12;4.20;;;4.00;;
11514;SDS011;5814;41.936;25.556;2022-08-04T11:12:39;4.35;;;4.05;;
11514;SDS011;5814;41.936;25.556;2022-08-04T11:15:09;4.47;;;4.10;;
11514;SDS011;5814;41.936;25.556;2022-08-04T11:17:35;4.82;;;3.87;;
11514;SDS011;5814;41.936;25.556;2022-08-04T11:22:46;4.12;;;3.90;;
11514;SDS011;5814;41.936;25.556;2022-08-04T11:25:12;4.10;;;3.87;;
11514;SDS011;5814;41.936;25.556;2022-08-04T11:30:18;3.80;;;3.65;;
11514;SDS011;5814;41.936;25.556;2022-08-04T11:32:45;3.87;;;3.67;;
11514;SDS011;5814;41.936;25.556;2022-08-04T11:35:15;4.12;;;3.83;;
11514;SDS011;5814;41.936;25.556;2022-08-04T11:37:44;5.75;;;4.07;;
11514;SDS011;5814;41.936;25.556;2022-08-04T11:40:10;3.80;;;3.60;;
11514;SDS011;5814;41.936;25.556;2022-08-04T11:42:36;3.97;;;3.62;;
11514;SDS011;5814;41.936;25.556;2022-08-04T11:45:03;3.97;;;3.78;;
11514;SDS011;5814;41.936;25.556;2022-08-04T11:47:28;4.37;;;4.18;;
11514;SDS011;5814;41.936;25.556;2022-08-04T11:50:04;4.40;;;4.20;;
11514;SDS011;5814;41.936;25.556;2022-08-04T11:52:31;6.22;;;4.10;;
11514;SDS011;5814;41.936;25.556;2022-08-04T11:54:58;4.30;;;4.10;;
11514;SDS011;5814;41.936;25.556;2022-08-04T11:57:24;4.05;;;3.75;;
11514;SDS011;5814;41.936;25.556;2022-08-04T11:59:51;4.05;;;3.83;;
11514;SDS011;5814;41.936;25.556;2022-08-04T12:04:55;4.03;;;3.80;;
11514;SDS011;5814;41.936;25.556;2022-08-04T12:07:28;4.50;;;4.20;;
11514;SDS011;5814;41.936;25.556;2022-08-04T12:12:25;4.10;;;3.80;;
11514;SDS011;5814;41.936;25.556;2022-08-04T12:15:03;4.28;;;3.97;;
11514;SDS011;5814;41.936;25.556;2022-08-04T12:17:37;4.60;;;4.30;;
11514;SDS011;5814;41.936;25.556;2022-08-04T12:20:01;4.05;;;3.75;;
11514;SDS011;5814;41.936;25.556;2022-08-04T12:22:27;4.80;;;4.50;;
11514;SDS011;5814;41.936;25.556;2022-08-04T12:24:58;4.65;;;4.20;;
11514;SDS011;5814;41.936;25.556;2022-08-04T12:27:24;4.25;;;3.95;;
11514;SDS011;5814;41.936;25.556;2022-08-04T12:29:50;4.60;;;4.20;;
11514;SDS011;5814;41.936;25.556;2022-08-04T12:32:21;4.97;;;4.68;;
11514;SDS011;5814;41.936;25.556;2022-08-04T12:34:45;4.60;;;4.28;;
11514;SDS011;5814;41.936;25.556;2022-08-04T12:37:14;5.05;;;4.75;;
11514;SDS011;5814;41.936;25.556;2022-08-04T12:39:37;4.45;;;4.15;;
11514;SDS011;5814;41.936;25.556;2022-08-04T12:42:22;4.55;;;4.22;;
11514;SDS011;5814;41.936;25.556;2022-08-04T12:44:47;4.37;;;3.97;;
11514;SDS011;5814;41.936;25.556;2022-08-04T12:47:15;4.80;;;4.40;;
11514;SDS011;5814;41.936;25.556;2022-08-04T12:49:43;5.68;;;4.70;;
11514;SDS011;5814;41.936;25.556;2022-08-04T12:52:08;4.43;;;4.15;;
11514;SDS011;5814;41.936;25.556;2022-08-04T12:54:34;4.80;;;4.50;;
11514;SDS011;5814;41.936;25.556;2022-08-04T12:57:05;4.65;;;4.25;;
11514;SDS011;5814;41.936;25.556;2022-08-04T12:59:36;4.60;;;4.30;;
11514;SDS011;5814;41.936;25.556;2022-08-04T13:01:57;4.30;;;4.00;;
11514;SDS011;5814;41.936;25.556;2022-08-04T13:04:24;5.10;;;4.70;;
11514;SDS011;5814;41.936;25.556;2022-08-04T13:06:53;4.05;;;3.75;;
11514;SDS011;5814;41.936;25.556;2022-08-04T13:09:19;4.00;;;3.80;;
11514;SDS011;5814;41.936;25.556;2022-08-04T13:11:47;3.92;;;3.72;;
11514;SDS011;5814;41.936;25.556;2022-08-04T13:14:12;5.22;;;4.80;;
11514;SDS011;5814;41.936;25.556;2022-08-04T13:16:38;4.85;;;4.50;;
11514;SDS011;5814;41.936;25.556;2022-08-04T13:19:05;4.50;;;4.20;;
11514;SDS011;5814;41.936;25.556;2022-08-04T13:21:31;4.30;;;4.10;;
11514;SDS011;5814;41.936;25.556;2022-08-04T13:24:00;4.37;;;4.10;;
11514;SDS011;5814;41.936;25.556;2022-08-04T13:26:24;4.37;;;4.18;;
11514;SDS011;5814;41.936;25.556;2022-08-04T13:28:51;4.30;;;4.00;;
11514;SDS011;5814;41.936;25.556;2022-08-04T13:31:17;4.68;;;4.30;;
11514;SDS011;5814;41.936;25.556;2022-08-04T13:33:44;4.30;;;4.00;;
11514;SDS011;5814;41.936;25.556;2022-08-04T13:36:09;4.03;;;3.78;;
11514;SDS011;5814;41.936;25.556;2022-08-04T13:38:37;4.20;;;4.00;;
11514;SDS011;5814;41.936;25.556;2022-08-04T13:41:02;4.12;;;3.80;;
11514;SDS011;5814;41.936;25.556;2022-08-04T13:43:29;3.70;;;3.50;;
11514;SDS011;5814;41.936;25.556;2022-08-04T13:46:02;3.60;;;3.50;;
11514;SDS011;5814;41.936;25.556;2022-08-04T13:48:30;3.85;;;3.65;;
11514;SDS011;5814;41.936;25.556;2022-08-04T13:50:55;3.85;;;3.60;;
11514;SDS011;5814;41.936;25.556;2022-08-04T13:53:21;3.92;;;3.72;;
11514;SDS011;5814;41.936;25.556;2022-08-04T13:55:48;4.30;;;4.10;;
11514;SDS011;5814;41.936;25.556;2022-08-04T13:58:19;4.32;;;4.03;;
11514;SDS011;5814;41.936;25.556;2022-08-04T14:00:47;4.20;;;4.00;;
11514;SDS011;5814;41.936;25.556;2022-08-04T14:03:13;4.30;;;4.07;;
11514;SDS011;5814;41.936;25.556;2022-08-04T14:05:39;4.10;;;3.90;;
11514;SDS011;5814;41.936;25.556;2022-08-04T14:08:07;3.65;;;3.55;;
11514;SDS011;5814;41.936;25.556;2022-08-04T14:10:33;4.35;;;4.10;;
11514;SDS011;5814;41.936;25.556;2022-08-04T14:12:59;4.45;;;4.25;;
11514;SDS011;5814;41.936;25.556;2022-08-04T14:15:35;4.03;;;3.72;;
11514;SDS011;5814;41.936;25.556;2022-08-04T14:20:32;4.60;;;4.30;;
11514;SDS011;5814;41.936;25.556;2022-08-04T14:22:59;5.45;;;3.87;;
11514;SDS011;5814;41.936;25.556;2022-08-04T14:25:25;4.22;;;3.97;;
11514;SDS011;5814;41.936;25.556;2022-08-04T14:27:52;4.10;;;3.87;;
11514;SDS011;5814;41.936;25.556;2022-08-04T14:30:25;4.22;;;3.90;;
11514;SDS011;5814;41.936;25.556;2022-08-04T14:32:53;3.78;;;3.47;;
11514;SDS011;5814;41.936;25.556;2022-08-04T14:35:19;4.28;;;4.03;;
11514;SDS011;5814;41.936;25.556;2022-08-04T14:37:55;4.12;;;3.92;;
11514;SDS011;5814;41.936;25.556;2022-08-04T14:40:24;4.22;;;3.90;;
11514;SDS011;5814;41.936;25.556;2022-08-04T14:42:49;4.05;;;3.85;;
11514;SDS011;5814;41.936;25.556;2022-08-04T14:45:16;4.05;;;3.85;;
11514;SDS011;5814;41.936;25.556;2022-08-04T14:47:42;4.18;;;3.97;;
11514;SDS011;5814;41.936;25.556;2022-08-04T14:50:09;3.67;;;3.47;;
11514;SDS011;5814;41.936;25.556;2022-08-04T14:52:35;3.70;;;3.50;;
11514;SDS011;5814;41.936;25.556;2022-08-04T14:55:23;4.07;;;3.80;;
11514;SDS011;5814;41.936;25.556;2022-08-04T14:57:49;3.80;;;3.60;;
11514;SDS011;5814;41.936;25.556;2022-08-04T15:02:47;3.72;;;3.62;;
11514;SDS011;5814;41.936;25.556;2022-08-04T15:05:13;4.20;;;3.90;;
11514;SDS011;5814;41.936;25.556;2022-08-04T15:07:40;4.12;;;3.90;;
11514;SDS011;5814;41.936;25.556;2022-08-04T15:10:07;4.10;;;3.90;;
11514;SDS011;5814;41.936;25.556;2022-08-04T15:12:33;5.37;;;4.00;;
11514;SDS011;5814;41.936;25.556;2022-08-04T15:14:59;3.97;;;3.70;;
11514;SDS011;5814;41.936;25.556;2022-08-04T15:17:26;4.10;;;3.80;;
11514;SDS011;5814;41.936;25.556;2022-08-04T15:19:53;4.25;;;3.92;;
11514;SDS011;5814;41.936;25.556;2022-08-04T15:22:19;5.57;;;3.83;;
11514;SDS011;5814;41.936;25.556;2022-08-04T15:24:45;4.78;;;4.32;;
11514;SDS011;5814;41.936;25.556;2022-08-04T15:27:11;3.92;;;3.72;;
11514;SDS011;5814;41.936;25.556;2022-08-04T15:29:39;3.95;;;3.75;;
11514;SDS011;5814;41.936;25.556;2022-08-04T15:32:04;3.90;;;3.70;;
11514;SDS011;5814;41.936;25.556;2022-08-04T15:37:03;3.85;;;3.65;;
11514;SDS011;5814;41.936;25.556;2022-08-04T15:39:32;3.70;;;3.50;;
11514;SDS011;5814;41.936;25.556;2022-08-04T15:42:01;3.90;;;3.70;;
11514;SDS011;5814;41.936;25.556;2022-08-04T15:44:45;4.03;;;3.83;;
11514;SDS011;5814;41.936;25.556;2022-08-04T15:47:12;4.22;;;4.00;;
11514;SDS011;5814;41.936;25.556;2022-08-04T15:49:38;4.35;;;4.15;;
11514;SDS011;5814;41.936;25.556;2022-08-04T15:52:05;4.45;;;4.25;;
11514;SDS011;5814;41.936;25.556;2022-08-04T15:54:31;4.05;;;3.85;;
11514;SDS011;5814;41.936;25.556;2022-08-04T15:56:57;3.83;;;3.62;;
11514;SDS011;5814;41.936;25.556;2022-08-04T16:02:27;4.10;;;3.90;;
11514;SDS011;5814;41.936;25.556;2022-08-04T16:04:23;4.30;;;4.10;;
11514;SDS011;5814;41.936;25.556;2022-08-04T16:06:48;4.30;;;4.00;;
11514;SDS011;5814;41.936;25.556;2022-08-04T16:09:25;5.40;;;3.85;;
11514;SDS011;5814;41.936;25.556;2022-08-04T16:11:52;4.03;;;3.83;;
11514;SDS011;5814;41.936;25.556;2022-08-04T16:14:29;4.03;;;3.83;;
11514;SDS011;5814;41.936;25.556;2022-08-04T16:16:46;4.20;;;3.80;;
11514;SDS011;5814;41.936;25.556;2022-08-04T16:21:46;4.75;;;4.03;;
11514;SDS011;5814;41.936;25.556;2022-08-04T16:24:29;4.25;;;4.05;;
11514;SDS011;5814;41.936;25.556;2022-08-04T16:26:56;4.40;;;4.20;;
11514;SDS011;5814;41.936;25.556;2022-08-04T16:29:25;4.25;;;3.95;;
11514;SDS011;5814;41.936;25.556;2022-08-04T16:34:23;4.20;;;4.00;;
11514;SDS011;5814;41.936;25.556;2022-08-04T16:36:54;4.93;;;4.20;;
11514;SDS011;5814;41.936;25.556;2022-08-04T16:39:20;4.18;;;3.97;;
11514;SDS011;5814;41.936;25.556;2022-08-04T16:41:46;3.90;;;3.72;;
11514;SDS011;5814;41.936;25.556;2022-08-04T16:46:45;4.50;;;4.20;;
11514;SDS011;5814;41.936;25.556;2022-08-04T16:49:11;4.35;;;4.05;;
11514;SDS011;5814;41.936;25.556;2022-08-04T16:51:37;4.50;;;4.10;;